Crypto Currency 2018-01-08T03:29:42+00:00

Leading the Flight Training Industry

Axiom Aviation has become the first flight school in Utah to accept CryptoCurrency flight school payments!  CryptoCurrency has taken the world by storm and we are happy to announce that we now accept flight training payments via Bitcoin and Ethereum.

For more information, inquire below.

Your Name (required)

Your Email (required)

Your Message


Current METAR

KOGD 180453Z AUTO 14004KT 10SM FEW010 BKN055 OVC070 01/M01 A2992 RMK AO2 SLP139 T00061011